Terminal Aerodrome Forecast
Issued by NWS

Home | Current Version | Previous Version | Graphics & Text | Print | Product List | Glossary On
Versions: 1 2 3 4 5 6 7 8 9 10 11 12 13 14 15 16 17 18 19 20 21 22 23 24 25 26 27 28 29 30 31 32 33 34 35 36 37 38 39 40 41 42 43 44 45 46 47 48 49 50
201
FTUS43 KGRB 171317 AAA
TAFATW
TAF AMD
KATW 171317Z 1713/1812 18012G18KT P6SM VCSH SCT006 BKN015
      TEMPO 1713/1715 BKN006
     FM171700 21015G23KT P6SM VCSH BKN025
      TEMPO 1717/1719 4SM TSRA BKN015CB
     FM180000 25011G20KT P6SM BKN015
     FM180600 28011G21KT P6SM BKN020=

USA.gov is the U.S. government's official web portal to all federal, state and local government web resources and services.